sensor_id;sensor_type;location;lat;lon;timestamp;P1;durP1;ratioP1;P2;durP2;ratioP2
12072;SDS011;6098;49.004;8.372;2023-03-11T00:06:35;1.81;;;1.51;;
12072;SDS011;6098;49.004;8.372;2023-03-11T00:21:28;2.67;;;1.38;;
12072;SDS011;6098;49.004;8.372;2023-03-11T00:36:22;2.22;;;1.54;;
12072;SDS011;6098;49.004;8.372;2023-03-11T00:51:13;2.00;;;1.23;;
12072;SDS011;6098;49.004;8.372;2023-03-11T01:06:03;1.72;;;0.91;;
12072;SDS011;6098;49.004;8.372;2023-03-11T01:20:54;1.48;;;1.00;;
12072;SDS011;6098;49.004;8.372;2023-03-11T01:35:45;1.46;;;0.88;;
12072;SDS011;6098;49.004;8.372;2023-03-11T01:50:49;1.86;;;1.10;;
12072;SDS011;6098;49.004;8.372;2023-03-11T02:05:38;1.58;;;0.90;;
12072;SDS011;6098;49.004;8.372;2023-03-11T02:35:42;1.18;;;0.80;;
12072;SDS011;6098;49.004;8.372;2023-03-11T02:50:33;2.41;;;1.03;;
12072;SDS011;6098;49.004;8.372;2023-03-11T03:05:23;2.00;;;1.13;;
12072;SDS011;6098;49.004;8.372;2023-03-11T03:20:13;2.28;;;1.20;;
12072;SDS011;6098;49.004;8.372;2023-03-11T03:35:03;2.29;;;1.30;;
12072;SDS011;6098;49.004;8.372;2023-03-11T03:49:53;1.51;;;1.31;;
12072;SDS011;6098;49.004;8.372;2023-03-11T04:04:43;4.22;;;1.61;;
12072;SDS011;6098;49.004;8.372;2023-03-11T04:19:33;4.04;;;1.43;;
12072;SDS011;6098;49.004;8.372;2023-03-11T04:34:23;3.48;;;1.48;;
12072;SDS011;6098;49.004;8.372;2023-03-11T04:49:13;2.53;;;1.32;;
12072;SDS011;6098;49.004;8.372;2023-03-11T05:04:02;4.23;;;1.77;;
12072;SDS011;6098;49.004;8.372;2023-03-11T05:18:52;5.09;;;1.32;;
12072;SDS011;6098;49.004;8.372;2023-03-11T05:33:42;3.99;;;1.40;;
12072;SDS011;6098;49.004;8.372;2023-03-11T05:48:33;2.78;;;1.42;;
12072;SDS011;6098;49.004;8.372;2023-03-11T06:03:23;7.19;;;1.41;;
12072;SDS011;6098;49.004;8.372;2023-03-11T06:18:13;3.82;;;1.52;;
12072;SDS011;6098;49.004;8.372;2023-03-11T06:33:04;3.70;;;1.77;;
12072;SDS011;6098;49.004;8.372;2023-03-11T06:47:55;5.36;;;1.78;;
12072;SDS011;6098;49.004;8.372;2023-03-11T07:02:46;4.00;;;1.58;;
12072;SDS011;6098;49.004;8.372;2023-03-11T07:17:37;4.00;;;1.84;;
12072;SDS011;6098;49.004;8.372;2023-03-11T07:32:27;4.24;;;1.66;;
12072;SDS011;6098;49.004;8.372;2023-03-11T07:47:18;5.06;;;1.82;;
12072;SDS011;6098;49.004;8.372;2023-03-11T08:02:10;6.14;;;1.76;;
12072;SDS011;6098;49.004;8.372;2023-03-11T08:17:01;4.02;;;1.77;;
12072;SDS011;6098;49.004;8.372;2023-03-11T08:31:51;4.37;;;1.54;;
12072;SDS011;6098;49.004;8.372;2023-03-11T08:46:41;3.92;;;1.57;;
12072;SDS011;6098;49.004;8.372;2023-03-11T09:01:32;3.71;;;1.61;;
12072;SDS011;6098;49.004;8.372;2023-03-11T09:16:23;7.17;;;1.84;;
12072;SDS011;6098;49.004;8.372;2023-03-11T09:31:14;4.94;;;1.58;;
12072;SDS011;6098;49.004;8.372;2023-03-11T10:01:13;2.70;;;1.24;;
12072;SDS011;6098;49.004;8.372;2023-03-11T10:30:56;4.19;;;1.30;;
12072;SDS011;6098;49.004;8.372;2023-03-11T10:45:46;1.36;;;0.83;;
12072;SDS011;6098;49.004;8.372;2023-03-11T11:00:37;2.26;;;0.96;;
12072;SDS011;6098;49.004;8.372;2023-03-11T11:15:31;2.19;;;0.86;;
12072;SDS011;6098;49.004;8.372;2023-03-11T11:30:24;1.96;;;1.13;;
12072;SDS011;6098;49.004;8.372;2023-03-11T11:45:17;2.39;;;0.80;;
12072;SDS011;6098;49.004;8.372;2023-03-11T12:00:12;2.21;;;1.24;;
12072;SDS011;6098;49.004;8.372;2023-03-11T12:14:58;2.47;;;1.66;;
12072;SDS011;6098;49.004;8.372;2023-03-11T12:30:12;3.87;;;0.90;;
12072;SDS011;6098;49.004;8.372;2023-03-11T13:15:50;1.27;;;0.72;;
12072;SDS011;6098;49.004;8.372;2023-03-11T13:46:13;1.77;;;0.79;;
12072;SDS011;6098;49.004;8.372;2023-03-11T14:01:13;3.08;;;1.26;;
12072;SDS011;6098;49.004;8.372;2023-03-11T14:30:58;5.20;;;1.10;;
12072;SDS011;6098;49.004;8.372;2023-03-11T14:45:48;1.48;;;1.10;;
12072;SDS011;6098;49.004;8.372;2023-03-11T15:00:49;2.69;;;0.90;;
12072;SDS011;6098;49.004;8.372;2023-03-11T15:15:36;2.09;;;0.97;;
12072;SDS011;6098;49.004;8.372;2023-03-11T15:30:28;2.23;;;1.40;;
12072;SDS011;6098;49.004;8.372;2023-03-11T15:45:16;3.29;;;1.14;;
12072;SDS011;6098;49.004;8.372;2023-03-11T16:00:06;4.07;;;1.14;;
12072;SDS011;6098;49.004;8.372;2023-03-11T16:14:57;3.77;;;1.20;;
12072;SDS011;6098;49.004;8.372;2023-03-11T16:29:47;2.42;;;1.16;;
12072;SDS011;6098;49.004;8.372;2023-03-11T16:44:37;3.17;;;0.88;;
12072;SDS011;6098;49.004;8.372;2023-03-11T16:59:27;3.08;;;1.00;;
12072;SDS011;6098;49.004;8.372;2023-03-11T17:14:17;4.89;;;1.53;;
12072;SDS011;6098;49.004;8.372;2023-03-11T17:29:07;3.96;;;1.96;;
12072;SDS011;6098;49.004;8.372;2023-03-11T17:43:56;3.63;;;2.00;;
12072;SDS011;6098;49.004;8.372;2023-03-11T17:58:46;3.74;;;2.20;;
12072;SDS011;6098;49.004;8.372;2023-03-11T18:13:35;6.53;;;2.37;;
12072;SDS011;6098;49.004;8.372;2023-03-11T18:28:25;4.87;;;2.13;;
12072;SDS011;6098;49.004;8.372;2023-03-11T18:43:15;4.09;;;2.20;;
12072;SDS011;6098;49.004;8.372;2023-03-11T18:58:15;5.53;;;2.10;;
12072;SDS011;6098;49.004;8.372;2023-03-11T19:13:06;4.54;;;2.32;;
12072;SDS011;6098;49.004;8.372;2023-03-11T19:27:56;8.42;;;3.91;;
12072;SDS011;6098;49.004;8.372;2023-03-11T19:42:51;12.61;;;5.27;;
12072;SDS011;6098;49.004;8.372;2023-03-11T19:57:40;7.49;;;3.60;;
12072;SDS011;6098;49.004;8.372;2023-03-11T20:12:45;4.24;;;2.62;;
12072;SDS011;6098;49.004;8.372;2023-03-11T20:27:44;4.24;;;2.49;;
12072;SDS011;6098;49.004;8.372;2023-03-11T20:42:35;4.36;;;2.64;;
12072;SDS011;6098;49.004;8.372;2023-03-11T20:57:27;5.06;;;2.60;;
12072;SDS011;6098;49.004;8.372;2023-03-11T21:12:32;6.34;;;2.96;;
12072;SDS011;6098;49.004;8.372;2023-03-11T21:27:27;6.77;;;2.92;;
12072;SDS011;6098;49.004;8.372;2023-03-11T21:42:17;5.98;;;3.92;;
12072;SDS011;6098;49.004;8.372;2023-03-11T21:57:21;6.26;;;4.06;;
12072;SDS011;6098;49.004;8.372;2023-03-11T22:12:10;5.99;;;4.04;;
12072;SDS011;6098;49.004;8.372;2023-03-11T22:27:00;8.96;;;4.23;;
12072;SDS011;6098;49.004;8.372;2023-03-11T22:41:50;10.82;;;5.39;;
12072;SDS011;6098;49.004;8.372;2023-03-11T22:56:43;7.99;;;4.97;;
12072;SDS011;6098;49.004;8.372;2023-03-11T23:11:33;8.96;;;5.52;;
12072;SDS011;6098;49.004;8.372;2023-03-11T23:26:28;8.94;;;5.51;;
12072;SDS011;6098;49.004;8.372;2023-03-11T23:41:18;8.04;;;5.58;;
12072;SDS011;6098;49.004;8.372;2023-03-11T23:56:10;13.87;;;7.32;;
